Terminal Aerodrome Forecast
Issued by NWS Greer, SC

Home | Current Version | Previous Version | Text Only | Print | Product List | Glossary On
Versions: 1 2 3 4 5 6 7 8 9 10 11 12 13 14 15 16 17 18 19 20 21 22 23 24 25 26 27 28 29 30 31
000
FTUS42 KGSP 130559 CCA
TAFAVL
TAF COR
KAVL 130559Z 1306/1406 35012KT P6SM BKN040
      TEMPO 1306/1309 35017G27KT 4SM -SHSN BKN030
     FM130900 34016G27KT P6SM SCT025
     FM131400 35014G24KT P6SM SCT250
     FM140100 34009KT P6SM FEW250=

USA.gov is the U.S. government's official web portal to all federal, state and local government web resources and services.